Time;durP1;ratioP1;P1;durP2;ratioP2;P2;SDS_P1;SDS_P2;PMS_P1;PMS_P2;Temp;Humidity;BMP_temperature;BMP_pressure;BME280_temperature;BME280_humidity;BME280_pressure;Samples;Min_cycle;Max_cycle;Signal;HPM_P1;HPM_P2
2022/02/12 00:00:13;;;;;;;8.87;3.47;;;;;;;;;;6269797;28;20228;-64
2022/02/12 00:03:34;;;;;;;10.67;6.10;;;;;;;;;;6243608;28;20241;-65
2022/02/12 00:06:54;;;;;;;6.77;3.70;;;;;;;;;;6261784;28;20232;-65
2022/02/12 00:10:16;;;;;;;7.60;3.70;;;;;;;;;;6251780;28;20579;-63
2022/02/12 00:13:37;;;;;;;12.93;4.40;;;;;;;;;;6247997;28;20231;-63
2022/02/12 00:16:57;;;;;;;11.60;4.87;;;;;;;;;;6246487;28;20224;-64
2022/02/12 00:20:18;;;;;;;7.70;4.20;;;;;;;;;;6254375;28;20231;-64
2022/02/12 00:23:39;;;;;;;9.60;3.87;;;;;;;;;;6266537;28;20236;-64
2022/02/12 00:27:00;;;;;;;15.67;4.90;;;;;;;;;;6261072;28;20267;-64
2022/02/12 00:30:21;;;;;;;7.47;3.97;;;;;;;;;;6267006;28;20239;-64
2022/02/12 00:33:42;;;;;;;7.30;4.53;;;;;;;;;;6263971;28;20224;-64
2022/02/12 00:37:03;;;;;;;11.93;4.43;;;;;;;;;;6261004;28;20225;-64
2022/02/12 00:40:25;;;;;;;7.63;3.80;;;;;;;;;;6261121;28;20314;-63
2022/02/12 00:43:47;;;;;;;8.10;3.83;;;;;;;;;;6265137;28;20240;-64
2022/02/12 00:47:08;;;;;;;11.23;4.07;;;;;;;;;;6246935;28;20235;-64
2022/02/12 00:50:28;;;;;;;7.63;4.13;;;;;;;;;;6258792;28;20244;-65
2022/02/12 00:53:49;;;;;;;9.80;4.03;;;;;;;;;;6252932;28;20232;-64
2022/02/12 00:57:10;;;;;;;16.73;4.13;;;;;;;;;;6263347;28;20235;-64
2022/02/12 01:00:33;;;;;;;6.63;3.67;;;;;;;;;;6274094;28;20604;-66
2022/02/12 01:03:54;;;;;;;6.40;3.80;;;;;;;;;;6248621;28;20235;-63
2022/02/12 01:07:15;;;;;;;8.57;4.97;;;;;;;;;;6284398;28;20317;-65
2022/02/12 01:10:36;;;;;;;10.83;4.13;;;;;;;;;;6261089;28;20221;-64
2022/02/12 01:13:56;;;;;;;8.40;3.80;;;;;;;;;;6278671;28;20234;-64
2022/02/12 01:17:18;;;;;;;9.43;3.53;;;;;;;;;;6252782;28;20327;-64
2022/02/12 01:20:39;;;;;;;9.90;5.17;;;;;;;;;;6265559;28;20531;-65
2022/02/12 01:24:00;;;;;;;13.70;4.00;;;;;;;;;;6258359;28;20968;-64
2022/02/12 01:27:20;;;;;;;7.83;4.40;;;;;;;;;;6257419;28;20255;-64
2022/02/12 01:30:41;;;;;;;14.33;5.23;;;;;;;;;;6276061;28;20265;-64
2022/02/12 01:34:03;;;;;;;8.07;3.73;;;;;;;;;;6262301;28;20590;-64
2022/02/12 01:37:24;;;;;;;12.53;3.97;;;;;;;;;;6266762;28;20234;-64
2022/02/12 01:40:45;;;;;;;11.20;5.77;;;;;;;;;;6284074;28;20223;-65
2022/02/12 01:44:09;;;;;;;10.57;4.63;;;;;;;;;;6278269;28;20624;-65
2022/02/12 01:47:30;;;;;;;8.07;4.17;;;;;;;;;;6280306;28;20227;-64
2022/02/12 01:50:52;;;;;;;13.33;3.63;;;;;;;;;;6279041;28;20227;-65
2022/02/12 01:54:12;;;;;;;7.10;3.40;;;;;;;;;;6286368;28;20227;-64
2022/02/12 01:57:33;;;;;;;7.40;3.77;;;;;;;;;;6266115;28;20227;-65
2022/02/12 02:00:53;;;;;;;14.43;5.57;;;;;;;;;;6267086;28;20235;-63
2022/02/12 02:04:14;;;;;;;9.00;3.93;;;;;;;;;;6269321;28;20235;-64
2022/02/12 02:07:36;;;;;;;9.70;3.70;;;;;;;;;;6274396;28;20227;-65
2022/02/12 02:10:56;;;;;;;8.53;3.97;;;;;;;;;;6259300;28;20236;-66
2022/02/12 02:14:17;;;;;;;11.03;3.90;;;;;;;;;;6252116;28;20231;-64
2022/02/12 02:17:38;;;;;;;8.47;3.97;;;;;;;;;;6253647;28;20228;-64
2022/02/12 02:20:58;;;;;;;7.13;4.37;;;;;;;;;;6250454;28;20219;-65
2022/02/12 02:24:21;;;;;;;9.47;4.97;;;;;;;;;;6255137;28;20932;-64
2022/02/12 02:27:42;;;;;;;8.73;4.17;;;;;;;;;;6255753;28;20220;-65
2022/02/12 02:31:03;;;;;;;9.27;3.77;;;;;;;;;;6266500;28;20600;-63
2022/02/12 02:34:24;;;;;;;8.40;4.20;;;;;;;;;;6260462;28;20228;-64
2022/02/12 02:37:45;;;;;;;15.43;4.63;;;;;;;;;;6268400;28;20243;-64
2022/02/12 02:41:07;;;;;;;14.47;4.93;;;;;;;;;;6281784;28;20234;-63
2022/02/12 02:44:27;;;;;;;7.63;4.37;;;;;;;;;;6279558;28;20239;-64
2022/02/12 02:47:48;;;;;;;10.50;4.70;;;;;;;;;;6261887;28;20231;-64
2022/02/12 02:58:42;;;;;;;14.47;5.53;;;;;;;;;;6272750;28;20236;-64
2022/02/12 03:02:02;;;;;;;12.80;5.87;;;;;;;;;;6254193;28;20228;-64
2022/02/12 03:05:23;;;;;;;12.90;7.07;;;;;;;;;;6282472;28;20231;-65
2022/02/12 03:08:43;;;;;;;10.60;6.73;;;;;;;;;;6261851;28;20322;-63
2022/02/12 03:12:04;;;;;;;8.17;5.17;;;;;;;;;;6283648;28;20235;-65
2022/02/12 03:15:26;;;;;;;11.90;5.50;;;;;;;;;;6281841;28;20529;-64
2022/02/12 03:18:48;;;;;;;13.47;7.03;;;;;;;;;;6248947;28;20240;-64
2022/02/12 03:22:09;;;;;;;10.17;4.47;;;;;;;;;;6258797;28;20228;-64
2022/02/12 03:25:30;;;;;;;8.53;4.83;;;;;;;;;;6257030;28;20224;-65
2022/02/12 03:28:50;;;;;;;9.47;5.27;;;;;;;;;;6261525;28;20235;-64
2022/02/12 03:32:12;;;;;;;23.87;6.33;;;;;;;;;;6254903;28;20236;-64
2022/02/12 03:35:33;;;;;;;11.97;6.23;;;;;;;;;;6282329;28;20606;-63
2022/02/12 03:38:54;;;;;;;7.87;5.40;;;;;;;;;;6273183;28;20227;-64
2022/02/12 03:42:15;;;;;;;15.47;5.97;;;;;;;;;;6275193;28;20239;-65
2022/02/12 03:45:36;;;;;;;11.07;4.80;;;;;;;;;;6281432;28;20250;-64
2022/02/12 03:48:58;;;;;;;17.13;6.50;;;;;;;;;;6273826;28;20816;-64
2022/02/12 03:52:19;;;;;;;10.67;5.63;;;;;;;;;;6265962;28;20235;-65
2022/02/12 03:55:40;;;;;;;10.30;5.53;;;;;;;;;;6272832;28;20243;-65
2022/02/12 03:59:00;;;;;;;9.33;4.97;;;;;;;;;;6273774;28;20243;-64
2022/02/12 04:02:20;;;;;;;11.67;5.53;;;;;;;;;;6266836;28;20610;-63
2022/02/12 04:05:44;;;;;;;11.10;5.57;;;;;;;;;;6272256;28;20692;-64
2022/02/12 04:09:04;;;;;;;10.20;7.80;;;;;;;;;;6274823;28;20223;-64
2022/02/12 04:12:24;;;;;;;10.63;5.50;;;;;;;;;;6273632;28;20311;-65
2022/02/12 04:15:45;;;;;;;13.43;5.63;;;;;;;;;;6273487;28;21204;-64
2022/02/12 04:19:06;;;;;;;13.57;5.37;;;;;;;;;;6282284;28;20223;-65
2022/02/12 04:22:28;;;;;;;10.23;6.13;;;;;;;;;;6268010;28;20790;-63
2022/02/12 04:25:48;;;;;;;18.20;6.60;;;;;;;;;;6254360;28;20240;-64
2022/02/12 04:29:08;;;;;;;13.10;6.87;;;;;;;;;;6268136;28;20504;-65
2022/02/12 04:32:29;;;;;;;10.57;6.20;;;;;;;;;;6268260;28;20231;-65
2022/02/12 04:35:50;;;;;;;11.93;6.30;;;;;;;;;;6259579;28;20236;-65
2022/02/12 04:39:12;;;;;;;15.63;7.77;;;;;;;;;;6266438;28;20228;-64
2022/02/12 04:42:33;;;;;;;7.97;5.70;;;;;;;;;;6282233;28;20230;-64
2022/02/12 04:45:55;;;;;;;13.13;6.70;;;;;;;;;;6277343;28;20227;-65
2022/02/12 04:49:16;;;;;;;10.27;6.53;;;;;;;;;;6284030;28;20239;-64
2022/02/12 04:52:37;;;;;;;11.87;6.63;;;;;;;;;;6283622;28;20231;-65
2022/02/12 04:56:00;;;;;;;11.80;6.63;;;;;;;;;;6278991;28;20230;-63
2022/02/12 04:59:21;;;;;;;12.13;6.80;;;;;;;;;;6283020;28;20239;-64
2022/02/12 05:02:42;;;;;;;13.00;8.03;;;;;;;;;;6278510;28;20322;-63
2022/02/12 05:06:03;;;;;;;14.57;8.70;;;;;;;;;;6280733;28;20231;-65
2022/02/12 05:09:24;;;;;;;11.43;7.27;;;;;;;;;;6266494;28;20231;-65
2022/02/12 05:12:45;;;;;;;12.67;7.43;;;;;;;;;;6278576;28;20227;-65
2022/02/12 05:16:06;;;;;;;10.30;6.97;;;;;;;;;;6268600;28;20488;-64
2022/02/12 05:19:27;;;;;;;14.03;7.40;;;;;;;;;;6285775;28;20612;-63
2022/02/12 05:22:47;;;;;;;9.83;6.87;;;;;;;;;;6289749;28;20560;-64
2022/02/12 05:26:08;;;;;;;9.73;7.03;;;;;;;;;;6253454;28;20250;-65
2022/02/12 05:29:30;;;;;;;9.27;6.97;;;;;;;;;;6286960;28;20227;-64
2022/02/12 05:32:51;;;;;;;12.00;6.97;;;;;;;;;;6278406;28;20227;-65
2022/02/12 05:36:12;;;;;;;13.87;7.60;;;;;;;;;;6255903;28;20248;-64
2022/02/12 05:39:33;;;;;;;12.13;7.03;;;;;;;;;;6257145;28;20231;-64
2022/02/12 05:42:54;;;;;;;11.17;6.60;;;;;;;;;;6259794;28;20612;-64
2022/02/12 05:46:16;;;;;;;10.40;6.10;;;;;;;;;;6261353;28;20219;-65
2022/02/12 05:49:37;;;;;;;11.07;6.93;;;;;;;;;;6283735;28;20239;-65
2022/02/12 05:52:57;;;;;;;10.17;6.43;;;;;;;;;;6280360;28;20512;-63
2022/02/12 05:56:18;;;;;;;10.17;6.43;;;;;;;;;;6281399;28;20628;-64
2022/02/12 05:59:39;;;;;;;9.37;5.43;;;;;;;;;;6259974;28;20228;-64
2022/02/12 06:03:02;;;;;;;11.60;6.17;;;;;;;;;;6256501;28;20232;-64
2022/02/12 06:06:22;;;;;;;14.23;7.67;;;;;;;;;;6278998;28;20227;-64
2022/02/12 06:09:43;;;;;;;8.50;4.97;;;;;;;;;;6272616;28;20251;-64
2022/02/12 06:13:03;;;;;;;11.00;6.17;;;;;;;;;;6254020;28;20219;-64
2022/02/12 06:16:24;;;;;;;10.30;5.83;;;;;;;;;;6271327;28;20329;-64
2022/02/12 06:19:46;;;;;;;8.13;5.73;;;;;;;;;;6259784;28;20513;-64
2022/02/12 06:23:07;;;;;;;8.57;5.80;;;;;;;;;;6273478;28;20231;-64
2022/02/12 06:26:27;;;;;;;9.77;6.13;;;;;;;;;;6278771;28;20227;-64
2022/02/12 06:29:48;;;;;;;9.10;5.40;;;;;;;;;;6282710;28;20544;-64
2022/02/12 06:33:08;;;;;;;11.33;4.87;;;;;;;;;;6278836;28;20227;-64
2022/02/12 06:36:30;;;;;;;9.87;5.33;;;;;;;;;;6256318;28;21711;-64
2022/02/12 06:39:51;;;;;;;9.23;5.73;;;;;;;;;;6261957;28;20362;-65
2022/02/12 06:43:12;;;;;;;8.27;4.07;;;;;;;;;;6254867;28;20216;-64
2022/02/12 06:46:32;;;;;;;13.10;5.57;;;;;;;;;;6257942;28;20224;-64
2022/02/12 06:49:53;;;;;;;7.07;3.93;;;;;;;;;;6265084;28;20227;-64
2022/02/12 06:53:15;;;;;;;10.40;5.93;;;;;;;;;;6283467;28;21824;-64
2022/02/12 06:56:36;;;;;;;11.07;4.67;;;;;;;;;;6278624;28;20230;-65
2022/02/12 06:59:56;;;;;;;11.43;4.53;;;;;;;;;;6266724;28;20251;-63
2022/02/12 07:03:18;;;;;;;8.63;4.40;;;;;;;;;;6274378;28;20222;-64
2022/02/12 07:06:38;;;;;;;10.00;5.23;;;;;;;;;;6261320;28;20240;-64
2022/02/12 07:10:00;;;;;;;9.80;5.30;;;;;;;;;;6261479;28;20224;-64
2022/02/12 07:13:20;;;;;;;9.00;5.03;;;;;;;;;;6256597;28;20220;-64
2022/02/12 07:16:42;;;;;;;10.17;4.63;;;;;;;;;;6260967;28;20224;-64
2022/02/12 07:20:03;;;;;;;9.20;5.50;;;;;;;;;;6242900;28;20625;-65
2022/02/12 07:23:23;;;;;;;6.53;3.53;;;;;;;;;;6252536;28;20228;-64
2022/02/12 07:26:45;;;;;;;7.77;3.47;;;;;;;;;;6253794;28;20391;-64
2022/02/12 07:30:07;;;;;;;9.27;5.07;;;;;;;;;;6258406;28;20220;-65
2022/02/12 07:33:28;;;;;;;10.07;4.03;;;;;;;;;;6260855;28;20263;-64
2022/02/12 07:36:49;;;;;;;26.43;5.63;;;;;;;;;;6283814;28;20218;-65
2022/02/12 07:40:10;;;;;;;9.57;4.40;;;;;;;;;;6278010;28;20231;-64
2022/02/12 07:43:32;;;;;;;12.30;6.10;;;;;;;;;;6279160;28;20243;-64
2022/02/12 07:46:53;;;;;;;9.80;3.90;;;;;;;;;;6269287;28;20252;-65
2022/02/12 07:50:14;;;;;;;10.43;4.53;;;;;;;;;;6244098;28;20316;-64
2022/02/12 07:53:35;;;;;;;13.30;4.53;;;;;;;;;;6248004;28;20267;-63
2022/02/12 07:56:56;;;;;;;7.30;4.60;;;;;;;;;;6272107;28;20238;-66
2022/02/12 08:00:19;;;;;;;17.60;6.10;;;;;;;;;;6281318;28;20228;-65
2022/02/12 08:03:40;;;;;;;11.10;4.70;;;;;;;;;;6286319;28;20231;-64
2022/02/12 08:14:16;;;;;;;8.60;4.67;;;;;;;;;;6283139;28;20219;-65
2022/02/12 08:17:38;;;;;;;5.87;4.33;;;;;;;;;;6284738;28;20597;-64
2022/02/12 08:20:58;;;;;;;9.03;5.23;;;;;;;;;;6274621;28;20686;-66
2022/02/12 08:24:19;;;;;;;12.37;4.57;;;;;;;;;;6270586;28;20227;-64
2022/02/12 08:27:40;;;;;;;10.47;4.77;;;;;;;;;;6274889;28;20234;-65
2022/02/12 08:31:00;;;;;;;10.93;4.57;;;;;;;;;;6270450;28;20231;-65
2022/02/12 08:34:23;;;;;;;10.90;4.93;;;;;;;;;;6269896;28;20231;-65
2022/02/12 08:37:44;;;;;;;12.30;5.40;;;;;;;;;;6273227;28;20255;-66
2022/02/12 08:41:05;;;;;;;11.03;5.73;;;;;;;;;;6272108;28;20219;-65
2022/02/12 08:44:25;;;;;;;9.20;5.13;;;;;;;;;;6272535;28;20322;-65
2022/02/12 08:47:45;;;;;;;7.27;4.67;;;;;;;;;;6271322;28;20625;-65
2022/02/12 08:51:08;;;;;;;13.27;5.23;;;;;;;;;;6272577;28;20333;-65
2022/02/12 08:54:28;;;;;;;8.87;4.60;;;;;;;;;;6277957;28;20223;-65
2022/02/12 08:57:49;;;;;;;8.63;4.50;;;;;;;;;;6281016;28;20227;-64
2022/02/12 09:01:10;;;;;;;14.13;5.57;;;;;;;;;;6270927;28;20502;-65
2022/02/12 09:04:31;;;;;;;13.23;5.77;;;;;;;;;;6277342;28;20231;-66
2022/02/12 09:07:52;;;;;;;9.80;5.47;;;;;;;;;;6276851;28;20240;-65
2022/02/12 09:11:14;;;;;;;8.30;4.50;;;;;;;;;;6279866;28;20314;-66
2022/02/12 09:14:34;;;;;;;6.80;4.80;;;;;;;;;;6274850;28;20333;-65
2022/02/12 09:17:55;;;;;;;8.57;4.37;;;;;;;;;;6276377;28;20621;-64
2022/02/12 09:21:16;;;;;;;7.43;4.50;;;;;;;;;;6269011;28;20633;-66
2022/02/12 09:24:37;;;;;;;11.73;5.27;;;;;;;;;;6276502;28;20231;-66
2022/02/12 09:27:58;;;;;;;8.13;3.97;;;;;;;;;;6257124;28;20228;-65
2022/02/12 09:31:19;;;;;;;6.33;3.40;;;;;;;;;;6283611;28;20318;-66
2022/02/12 09:34:39;;;;;;;4.73;4.27;;;;;;;;;;6268366;28;20609;-66
2022/02/12 09:38:00;;;;;;;12.50;5.80;;;;;;;;;;6276987;28;20227;-66
2022/02/12 09:41:23;;;;;;;15.13;5.07;;;;;;;;;;6241005;28;20224;-66
2022/02/12 09:44:44;;;;;;;13.43;4.80;;;;;;;;;;6239586;28;20244;-66
2022/02/12 09:48:05;;;;;;;10.60;4.90;;;;;;;;;;6241574;28;20239;-66
2022/02/12 09:51:27;;;;;;;8.27;3.97;;;;;;;;;;6261846;28;20816;-66
2022/02/12 09:54:47;;;;;;;6.50;3.90;;;;;;;;;;6261923;28;20247;-65
2022/02/12 09:58:13;;;;;;;14.67;4.80;;;;;;;;;;6255601;28;20314;-67
2022/02/12 10:01:37;;;;;;;6.47;3.77;;;;;;;;;;6256987;28;20587;-66
2022/02/12 10:05:17;;;;;;;7.27;3.77;;;;;;;;;;6252767;28;20238;-66
2022/02/12 10:08:40;;;;;;;13.53;4.20;;;;;;;;;;6243022;28;20231;-66
2022/02/12 10:12:00;;;;;;;8.10;3.30;;;;;;;;;;6237402;28;20327;-66
2022/02/12 10:15:25;;;;;;;5.93;3.47;;;;;;;;;;6246007;28;20489;-67
2022/02/12 10:18:52;;;;;;;7.83;3.80;;;;;;;;;;6263448;28;20227;-66
2022/02/12 10:22:15;;;;;;;9.70;3.73;;;;;;;;;;6270524;28;20243;-66
2022/02/12 10:25:36;;;;;;;7.83;4.10;;;;;;;;;;6247051;28;20239;-67
2022/02/12 10:29:01;;;;;;;7.83;3.37;;;;;;;;;;6251257;28;21410;-66
2022/02/12 10:32:25;;;;;;;11.13;4.10;;;;;;;;;;6260078;28;20234;-64
2022/02/12 10:35:54;;;;;;;13.50;4.43;;;;;;;;;;6248610;28;20244;-68
2022/02/12 10:39:16;;;;;;;8.63;3.50;;;;;;;;;;6245722;28;20219;-67
2022/02/12 10:42:44;;;;;;;7.23;3.77;;;;;;;;;;6252041;28;20231;-68
2022/02/12 10:46:05;;;;;;;7.87;4.37;;;;;;;;;;6269785;28;20226;-67
2022/02/12 10:49:27;;;;;;;8.83;3.10;;;;;;;;;;6261489;28;20236;-68
2022/02/12 10:52:48;;;;;;;9.57;3.33;;;;;;;;;;6253680;28;20227;-66
2022/02/12 10:56:09;;;;;;;5.10;2.53;;;;;;;;;;6261897;28;20224;-66
2022/02/12 10:59:32;;;;;;;7.10;3.60;;;;;;;;;;6257004;28;20223;-67
2022/02/12 11:02:53;;;;;;;6.97;2.40;;;;;;;;;;6249046;28;20243;-68
2022/02/12 11:06:15;;;;;;;3.27;2.97;;;;;;;;;;6248030;28;20223;-69
2022/02/12 11:09:37;;;;;;;7.23;2.23;;;;;;;;;;6268589;28;20224;-66
2022/02/12 11:12:58;;;;;;;6.63;2.43;;;;;;;;;;6276945;28;20231;-66
2022/02/12 11:16:18;;;;;;;6.60;2.53;;;;;;;;;;6278337;28;20235;-66
2022/02/12 11:19:39;;;;;;;7.77;2.30;;;;;;;;;;6267682;28;20264;-65
2022/02/12 11:23:19;;;;;;;5.63;2.30;;;;;;;;;;6280025;28;20235;-66
2022/02/12 11:26:41;;;;;;;5.70;2.05;;;;;;;;;;6283365;28;20227;-66
2022/02/12 11:30:15;;;;;;;4.00;1.90;;;;;;;;;;6268042;28;20224;-67
2022/02/12 11:33:38;;;;;;;5.45;1.95;;;;;;;;;;6275971;28;20227;-65
2022/02/12 11:37:12;;;;;;;4.80;2.53;;;;;;;;;;6277845;28;20231;-65
2022/02/12 11:40:32;;;;;;;5.70;1.80;;;;;;;;;;6279719;28;20231;-66
2022/02/12 11:43:55;;;;;;;6.07;2.27;;;;;;;;;;6278884;28;20825;-66
2022/02/12 11:47:16;;;;;;;7.40;2.25;;;;;;;;;;6277322;28;20232;-65
2022/02/12 11:50:44;;;;;;;6.55;2.35;;;;;;;;;;6280205;28;20223;-67
2022/02/12 11:54:04;;;;;;;5.00;1.90;;;;;;;;;;6276876;28;20228;-65
2022/02/12 11:57:42;;;;;;;8.15;3.05;;;;;;;;;;6281148;28;20699;-64
2022/02/12 12:01:04;;;;;;;4.77;2.17;;;;;;;;;;6276628;28;20696;-66
2022/02/12 12:04:30;;;;;;;4.43;2.40;;;;;;;;;;6272319;28;20235;-64
2022/02/12 12:08:08;;;;;;;4.73;2.00;;;;;;;;;;6278886;28;20234;-65
2022/02/12 12:11:29;;;;;;;8.27;3.10;;;;;;;;;;6276084;28;20223;-65
2022/02/12 12:14:50;;;;;;;6.03;2.50;;;;;;;;;;6284760;28;20255;-65
2022/02/12 12:18:12;;;;;;;7.37;2.40;;;;;;;;;;6282574;28;20227;-65
2022/02/12 12:21:32;;;;;;;6.73;2.90;;;;;;;;;;6285188;28;20231;-66
2022/02/12 12:24:58;;;;;;;6.40;3.13;;;;;;;;;;6280776;28;20256;-65
2022/02/12 12:28:28;;;;;;;8.47;2.63;;;;;;;;;;6283551;28;20235;-68
2022/02/12 12:31:48;;;;;;;4.57;2.80;;;;;;;;;;6288356;28;20231;-66
2022/02/12 12:35:10;;;;;;;8.97;3.50;;;;;;;;;;6283442;28;20223;-65
2022/02/12 12:38:37;;;;;;;6.70;2.83;;;;;;;;;;6288766;28;20326;-65
2022/02/12 12:41:58;;;;;;;8.37;3.60;;;;;;;;;;6289054;28;20608;-64
2022/02/12 12:45:19;;;;;;;9.90;3.27;;;;;;;;;;6288564;28;20227;-64
2022/02/12 12:48:39;;;;;;;6.47;3.27;;;;;;;;;;6287574;28;20235;-65
2022/02/12 12:52:01;;;;;;;7.83;2.50;;;;;;;;;;6284734;28;20259;-65
2022/02/12 12:55:22;;;;;;;9.67;3.27;;;;;;;;;;6284636;28;20620;-66
2022/02/12 12:58:44;;;;;;;5.90;2.40;;;;;;;;;;6275754;28;20231;-66
2022/02/12 13:02:06;;;;;;;6.37;3.40;;;;;;;;;;6292529;28;20226;-65
2022/02/12 13:05:27;;;;;;;6.00;3.00;;;;;;;;;;6287425;28;20230;-65
2022/02/12 13:08:49;;;;;;;7.03;3.33;;;;;;;;;;6285331;28;20263;-65
2022/02/12 13:12:26;;;;;;;13.27;4.03;;;;;;;;;;6287041;28;20532;-65
2022/02/12 13:15:47;;;;;;;8.60;4.10;;;;;;;;;;6277463;28;20235;-66
2022/02/12 13:19:11;;;;;;;8.63;3.57;;;;;;;;;;6289907;28;20326;-65
2022/02/12 13:22:33;;;;;;;8.03;2.90;;;;;;;;;;6285633;28;20230;-64
2022/02/12 13:25:56;;;;;;;5.23;2.90;;;;;;;;;;6287947;28;20591;-65
2022/02/12 13:29:17;;;;;;;10.17;3.50;;;;;;;;;;6284149;28;20325;-65
2022/02/12 13:32:38;;;;;;;9.37;2.93;;;;;;;;;;6283001;28;20231;-64
2022/02/12 13:35:59;;;;;;;6.43;3.37;;;;;;;;;;6292491;28;20653;-64
2022/02/12 13:39:20;;;;;;;6.87;3.17;;;;;;;;;;6282600;28;20238;-66
2022/02/12 13:42:42;;;;;;;6.40;3.27;;;;;;;;;;6273506;28;20227;-65
2022/02/12 13:46:03;;;;;;;8.10;4.03;;;;;;;;;;6276186;28;20243;-66
2022/02/12 13:49:25;;;;;;;7.33;3.53;;;;;;;;;;6273283;28;20231;-65
2022/02/12 13:52:53;;;;;;;9.67;3.53;;;;;;;;;;6275961;28;20224;-64
2022/02/12 13:56:13;;;;;;;6.73;3.27;;;;;;;;;;6276127;28;20231;-65
2022/02/12 13:59:35;;;;;;;15.43;4.17;;;;;;;;;;6268341;28;20235;-66
2022/02/12 14:02:56;;;;;;;9.80;4.67;;;;;;;;;;6277543;28;20239;-66
2022/02/12 14:06:17;;;;;;;12.07;4.80;;;;;;;;;;6270539;28;20981;-65
2022/02/12 14:09:38;;;;;;;12.30;4.53;;;;;;;;;;6281262;28;20238;-64
2022/02/12 14:12:59;;;;;;;11.53;4.17;;;;;;;;;;6281400;28;20254;-65
2022/02/12 14:16:21;;;;;;;10.53;4.47;;;;;;;;;;6280432;28;20235;-65
2022/02/12 14:19:42;;;;;;;12.67;5.17;;;;;;;;;;6284320;28;20259;-65
2022/02/12 14:23:02;;;;;;;7.70;3.60;;;;;;;;;;6283560;28;20496;-63
2022/02/12 14:26:23;;;;;;;10.07;4.30;;;;;;;;;;6281572;28;20223;-64
2022/02/12 14:29:44;;;;;;;5.33;3.63;;;;;;;;;;6282401;28;20242;-65
2022/02/12 14:33:06;;;;;;;13.37;4.57;;;;;;;;;;6279695;28;20620;-66
2022/02/12 14:36:26;;;;;;;8.20;3.63;;;;;;;;;;6284661;28;20244;-66
2022/02/12 14:39:47;;;;;;;8.57;4.03;;;;;;;;;;6286899;28;20606;-65
2022/02/12 14:43:08;;;;;;;12.60;4.63;;;;;;;;;;6289208;28;20959;-65
2022/02/12 14:46:29;;;;;;;9.67;4.67;;;;;;;;;;6280655;28;20396;-65
2022/02/12 14:49:51;;;;;;;8.93;4.43;;;;;;;;;;6295208;28;20266;-65
2022/02/12 14:53:13;;;;;;;9.67;3.97;;;;;;;;;;6278297;28;20318;-66
2022/02/12 14:56:33;;;;;;;7.17;3.53;;;;;;;;;;6275711;28;20247;-64
2022/02/12 14:59:54;;;;;;;7.80;3.50;;;;;;;;;;6278283;28;20232;-63
2022/02/12 15:03:14;;;;;;;7.57;3.67;;;;;;;;;;6279426;28;20235;-65
2022/02/12 15:06:36;;;;;;;8.00;4.13;;;;;;;;;;6280391;28;20227;-65
2022/02/12 15:09:57;;;;;;;7.93;4.13;;;;;;;;;;6277388;28;20239;-64
2022/02/12 15:13:18;;;;;;;6.20;3.80;;;;;;;;;;6286721;28;20231;-68
2022/02/12 15:16:38;;;;;;;13.73;6.93;;;;;;;;;;6280849;28;20223;-65
2022/02/12 15:19:59;;;;;;;7.07;3.23;;;;;;;;;;6281466;28;20235;-66
2022/02/12 15:23:21;;;;;;;7.77;3.30;;;;;;;;;;6280387;28;20597;-66
2022/02/12 15:26:43;;;;;;;7.00;4.03;;;;;;;;;;6271164;28;20261;-68
2022/02/12 15:30:04;;;;;;;12.23;4.40;;;;;;;;;;6278310;28;20230;-65
2022/02/12 15:33:24;;;;;;;10.53;3.40;;;;;;;;;;6285543;28;20825;-67
2022/02/12 15:36:45;;;;;;;8.53;4.33;;;;;;;;;;6288168;28;20527;-69
2022/02/12 15:40:07;;;;;;;6.90;3.60;;;;;;;;;;6286041;28;20227;-69
2022/02/12 15:43:31;;;;;;;8.67;4.00;;;;;;;;;;6278196;28;20223;-69
2022/02/12 15:46:52;;;;;;;6.53;3.90;;;;;;;;;;6256554;28;20251;-68
2022/02/12 15:50:12;;;;;;;9.47;5.30;;;;;;;;;;6254919;28;20796;-66
2022/02/12 15:53:33;;;;;;;10.37;4.97;;;;;;;;;;6252414;28;20479;-67
2022/02/12 15:56:55;;;;;;;5.10;3.27;;;;;;;;;;6254769;28;20232;-67
2022/02/12 16:00:16;;;;;;;4.83;3.70;;;;;;;;;;6258003;28;20240;-68
2022/02/12 16:03:37;;;;;;;9.57;3.43;;;;;;;;;;6259779;28;20587;-65
2022/02/12 16:06:59;;;;;;;9.50;4.77;;;;;;;;;;6272722;28;20758;-66
2022/02/12 16:10:19;;;;;;;10.37;4.37;;;;;;;;;;6270949;28;20227;-66
2022/02/12 16:13:41;;;;;;;9.87;4.40;;;;;;;;;;6271729;28;20224;-67
2022/02/12 16:17:02;;;;;;;7.73;3.20;;;;;;;;;;6253776;28;20231;-67
2022/02/12 16:20:24;;;;;;;12.17;5.00;;;;;;;;;;6261428;28;20251;-68
2022/02/12 16:23:45;;;;;;;7.87;4.80;;;;;;;;;;6245993;28;20783;-63
2022/02/12 16:27:05;;;;;;;9.03;4.57;;;;;;;;;;6252924;28;20228;-68
2022/02/12 16:30:28;;;;;;;13.97;4.50;;;;;;;;;;6253535;28;20232;-68
2022/02/12 16:33:48;;;;;;;11.10;4.47;;;;;;;;;;6261379;28;20236;-66
2022/02/12 16:37:09;;;;;;;11.13;4.27;;;;;;;;;;6268531;28;20248;-66
2022/02/12 16:40:29;;;;;;;7.40;4.27;;;;;;;;;;6252632;28;20521;-67
2022/02/12 16:43:50;;;;;;;10.40;5.13;;;;;;;;;;6248660;28;20229;-66
2022/02/12 16:47:12;;;;;;;6.67;4.37;;;;;;;;;;6256597;28;20331;-67
2022/02/12 16:50:33;;;;;;;8.40;4.73;;;;;;;;;;6253472;28;20232;-68
2022/02/12 16:53:53;;;;;;;7.13;3.17;;;;;;;;;;6268712;28;20235;-68
2022/02/12 16:57:15;;;;;;;13.70;3.83;;;;;;;;;;6262085;28;20470;-68
2022/02/12 17:00:35;;;;;;;7.23;3.37;;;;;;;;;;6262326;28;20231;-69
2022/02/12 17:03:57;;;;;;;9.37;4.20;;;;;;;;;;6256154;28;20235;-66
2022/02/12 17:07:18;;;;;;;12.50;4.27;;;;;;;;;;6244155;28;20644;-67
2022/02/12 17:10:38;;;;;;;6.43;3.70;;;;;;;;;;6241084;28;20255;-64
2022/02/12 17:13:59;;;;;;;8.10;4.70;;;;;;;;;;6258470;28;20317;-64
2022/02/12 17:17:20;;;;;;;6.23;2.80;;;;;;;;;;6250497;28;20223;-65
2022/02/12 17:20:42;;;;;;;12.60;4.37;;;;;;;;;;6257079;28;20231;-65
2022/02/12 17:24:03;;;;;;;6.10;4.00;;;;;;;;;;6262819;28;20748;-66
2022/02/12 17:27:24;;;;;;;7.13;3.70;;;;;;;;;;6281854;28;20223;-64
2022/02/12 17:30:44;;;;;;;6.20;3.37;;;;;;;;;;6275289;28;20333;-64
2022/02/12 17:34:06;;;;;;;12.57;4.43;;;;;;;;;;6274493;28;20652;-65
2022/02/12 17:37:28;;;;;;;12.70;5.13;;;;;;;;;;6270218;28;20235;-66
2022/02/12 17:40:48;;;;;;;6.10;3.63;;;;;;;;;;6242451;28;20228;-65
2022/02/12 17:44:10;;;;;;;7.03;3.70;;;;;;;;;;6238317;28;20227;-64
2022/02/12 17:47:31;;;;;;;9.60;3.97;;;;;;;;;;6257273;28;20251;-65
2022/02/12 17:50:52;;;;;;;7.30;4.30;;;;;;;;;;6221751;28;20590;-65
2022/02/12 17:54:14;;;;;;;6.53;3.37;;;;;;;;;;6258897;28;20235;-66
2022/02/12 17:57:35;;;;;;;7.40;3.97;;;;;;;;;;6263542;28;20223;-63
2022/02/12 18:00:56;;;;;;;8.47;4.53;;;;;;;;;;6251563;28;20235;-65
2022/02/12 18:04:16;;;;;;;6.97;4.03;;;;;;;;;;6261045;28;20227;-65
2022/02/12 18:07:36;;;;;;;9.93;3.97;;;;;;;;;;6256241;28;20236;-64
2022/02/12 18:10:58;;;;;;;8.77;4.10;;;;;;;;;;6264576;28;20263;-64
2022/02/12 18:14:19;;;;;;;9.77;3.70;;;;;;;;;;6268003;28;20227;-66
2022/02/12 18:17:40;;;;;;;8.13;4.53;;;;;;;;;;6269269;28;20256;-66
2022/02/12 18:21:00;;;;;;;7.93;4.00;;;;;;;;;;6268574;28;20232;-65
2022/02/12 18:24:22;;;;;;;11.53;5.63;;;;;;;;;;6266139;28;20234;-65
2022/02/12 18:27:45;;;;;;;6.60;4.10;;;;;;;;;;6268565;28;20231;-65
2022/02/12 18:31:05;;;;;;;5.90;4.07;;;;;;;;;;6267066;28;20609;-66
2022/02/12 18:34:26;;;;;;;10.30;4.30;;;;;;;;;;6268970;28;20228;-65
2022/02/12 18:37:48;;;;;;;7.10;3.50;;;;;;;;;;6266999;28;20243;-66
2022/02/12 18:41:08;;;;;;;7.37;4.10;;;;;;;;;;6272005;28;20230;-67
2022/02/12 18:44:33;;;;;;;7.53;4.13;;;;;;;;;;6263235;28;20990;-65
2022/02/12 18:47:54;;;;;;;12.50;4.17;;;;;;;;;;6266802;28;20661;-65
2022/02/12 18:51:14;;;;;;;9.90;3.43;;;;;;;;;;6273245;28;20235;-66
2022/02/12 18:54:35;;;;;;;6.30;4.70;;;;;;;;;;6275748;28;20238;-65
2022/02/12 18:57:55;;;;;;;6.13;3.20;;;;;;;;;;6280570;28;20238;-65
2022/02/12 19:01:17;;;;;;;9.10;4.87;;;;;;;;;;6277584;28;20231;-67
2022/02/12 19:04:38;;;;;;;10.23;4.73;;;;;;;;;;6273152;28;20228;-64
2022/02/12 19:07:59;;;;;;;7.77;4.23;;;;;;;;;;6273017;28;20224;-66
2022/02/12 19:11:19;;;;;;;9.70;4.80;;;;;;;;;;6275279;28;20227;-65
2022/02/12 19:14:40;;;;;;;8.70;4.80;;;;;;;;;;6275424;28;20223;-66
2022/02/12 19:18:02;;;;;;;6.83;4.03;;;;;;;;;;6273957;28;20235;-67
2022/02/12 19:21:23;;;;;;;9.87;4.73;;;;;;;;;;6275334;28;20235;-66
2022/02/12 19:24:43;;;;;;;7.97;3.60;;;;;;;;;;6268671;28;20231;-66
2022/02/12 19:28:04;;;;;;;7.10;3.63;;;;;;;;;;6277855;28;20746;-66
2022/02/12 19:31:25;;;;;;;7.93;3.73;;;;;;;;;;6284325;28;20235;-66
2022/02/12 19:34:47;;;;;;;8.43;3.73;;;;;;;;;;6278258;28;20255;-65
2022/02/12 19:38:11;;;;;;;11.70;4.07;;;;;;;;;;6286953;28;20652;-65
2022/02/12 19:41:32;;;;;;;7.70;4.00;;;;;;;;;;6283023;28;20263;-67
2022/02/12 19:44:58;;;;;;;6.97;3.90;;;;;;;;;;6282250;28;20255;-67
2022/02/12 19:48:18;;;;;;;6.97;4.23;;;;;;;;;;6285532;28;20227;-69
2022/02/12 19:51:41;;;;;;;6.00;4.73;;;;;;;;;;6284849;28;20227;-67
2022/02/12 19:55:01;;;;;;;7.07;3.93;;;;;;;;;;6272983;28;20271;-68
2022/02/12 19:58:22;;;;;;;7.33;4.60;;;;;;;;;;6271104;28;20227;-66
2022/02/12 20:01:42;;;;;;;9.20;4.30;;;;;;;;;;6269181;28;20242;-66
2022/02/12 20:05:03;;;;;;;10.47;4.93;;;;;;;;;;6273988;28;20288;-66
2022/02/12 20:08:25;;;;;;;9.97;6.47;;;;;;;;;;6274616;28;20329;-66
2022/02/12 20:11:46;;;;;;;13.37;5.47;;;;;;;;;;6284168;28;20737;-66
2022/02/12 20:15:10;;;;;;;7.97;4.80;;;;;;;;;;6274002;28;20238;-66